createdAt,value
2022-12-16T00:01:11.436Z,26.80
2022-12-16T00:04:53.423Z,28.23
2022-12-16T00:08:38.129Z,31.27
2022-12-16T00:12:19.918Z,27.00
2022-12-16T00:16:09.187Z,34.00
2022-12-16T00:19:50.962Z,32.22
2022-12-16T00:23:35.377Z,34.67
2022-12-16T00:27:17.571Z,39.97
2022-12-16T00:30:59.319Z,44.50
2022-12-16T00:34:41.088Z,48.92
2022-12-16T00:38:25.541Z,31.58
2022-12-16T00:42:07.281Z,37.75
2022-12-16T00:45:50.356Z,37.28
2022-12-16T00:49:33.606Z,35.97
2022-12-16T00:53:15.384Z,32.90
2022-12-16T00:56:57.118Z,28.40
2022-12-16T01:00:38.872Z,24.85
2022-12-16T01:04:20.681Z,24.52
2022-12-16T01:08:02.471Z,24.35
2022-12-16T01:11:44.284Z,25.73
2022-12-16T01:15:26.020Z,23.70
2022-12-16T01:19:07.769Z,23.83
2022-12-16T01:22:49.502Z,21.85
2022-12-16T01:26:31.819Z,21.58
2022-12-16T01:30:13.877Z,21.88
2022-12-16T01:33:55.624Z,18.58
2022-12-16T01:37:37.367Z,20.00
2022-12-16T01:41:19.262Z,17.90
2022-12-16T01:45:28.674Z,16.58
2022-12-16T01:49:19.688Z,18.15
2022-12-16T01:53:04.642Z,16.48
2022-12-16T01:56:51.658Z,18.95
2022-12-16T02:00:34.710Z,22.40
2022-12-16T02:04:16.565Z,15.80
2022-12-16T02:08:10.232Z,19.55
2022-12-16T02:12:11.413Z,16.92
2022-12-16T02:16:07.649Z,19.88
2022-12-16T02:20:19.047Z,18.45
2022-12-16T02:24:20.676Z,18.73
2022-12-16T02:28:31.132Z,17.48
2022-12-16T02:32:37.322Z,12.73
2022-12-16T02:36:25.403Z,16.30
2022-12-16T02:40:17.661Z,19.65
2022-12-16T02:44:06.694Z,14.77
2022-12-16T02:47:48.762Z,16.77
2022-12-16T02:51:30.473Z,15.30
2022-12-16T02:55:12.535Z,18.52
2022-12-16T02:59:19.205Z,16.75
2022-12-16T03:03:30.866Z,19.25
2022-12-16T03:07:15.625Z,15.27
2022-12-16T03:11:01.066Z,16.98
2022-12-16T03:14:46.769Z,19.33
2022-12-16T03:18:29.026Z,16.65
2022-12-16T03:22:20.294Z,19.10
2022-12-16T03:26:09.198Z,11.23
2022-12-16T03:29:53.960Z,15.13
2022-12-16T03:33:42.785Z,13.85
2022-12-16T03:37:29.573Z,17.02
2022-12-16T03:41:13.287Z,19.52
2022-12-16T03:44:55.094Z,15.63
2022-12-16T03:48:37.058Z,13.77
2022-12-16T03:52:18.897Z,18.55
2022-12-16T03:56:00.638Z,14.10
2022-12-16T03:59:42.711Z,17.05
2022-12-16T04:03:24.496Z,16.20
2022-12-16T04:07:21.315Z,15.60
2022-12-16T04:11:21.532Z,17.20
2022-12-16T04:15:22.678Z,16.63
2022-12-16T04:19:23.695Z,14.23
2022-12-16T04:23:24.200Z,16.83
2022-12-16T04:27:24.645Z,20.33
2022-12-16T04:31:06.702Z,15.52
2022-12-16T04:34:48.533Z,18.35
2022-12-16T04:38:49.519Z,18.52
2022-12-16T04:42:50.956Z,13.38
2022-12-16T04:46:51.503Z,12.63
2022-12-16T04:50:51.819Z,18.67
2022-12-16T04:54:52.279Z,12.85
2022-12-16T04:58:52.761Z,13.95
2022-12-16T05:02:53.463Z,12.10
2022-12-16T05:06:53.680Z,13.15
2022-12-16T05:10:54.251Z,14.68
2022-12-16T05:14:55.445Z,19.10
2022-12-16T05:18:56.082Z,15.48
2022-12-16T05:22:56.588Z,18.20
2022-12-16T05:26:56.917Z,13.60
2022-12-16T05:30:57.495Z,18.08
2022-12-16T05:34:57.835Z,15.73
2022-12-16T05:38:58.389Z,16.20
2022-12-16T05:42:58.863Z,12.77
2022-12-16T05:46:59.515Z,16.42
2022-12-16T05:50:59.940Z,13.48
2022-12-16T05:55:00.288Z,16.60
2022-12-16T05:59:00.662Z,19.85
2022-12-16T06:03:01.469Z,20.08
2022-12-16T06:07:01.740Z,20.92
2022-12-16T06:11:02.339Z,15.60
2022-12-16T06:15:02.952Z,14.30
2022-12-16T06:19:03.430Z,17.48
2022-12-16T06:23:10.274Z,16.42
2022-12-16T06:27:10.778Z,18.38
2022-12-16T06:31:11.252Z,14.77
2022-12-16T06:35:11.487Z,15.55
2022-12-16T06:39:11.943Z,18.77
2022-12-16T06:43:12.409Z,18.92
2022-12-16T06:47:13.016Z,16.85
2022-12-16T06:51:13.463Z,15.98
2022-12-16T06:55:14.012Z,21.33
2022-12-16T06:59:14.291Z,18.80
2022-12-16T07:03:14.747Z,14.35
2022-12-16T07:07:15.011Z,24.63
2022-12-16T07:11:16.944Z,17.48
2022-12-16T07:15:17.868Z,15.55
2022-12-16T07:19:18.379Z,16.95
2022-12-16T07:23:20.051Z,17.58
2022-12-16T07:27:20.731Z,14.02
2022-12-16T07:31:21.191Z,19.02
2022-12-16T07:35:21.517Z,15.48
2022-12-16T07:39:22.159Z,22.45
2022-12-16T07:43:22.667Z,18.10
2022-12-16T07:47:23.227Z,19.10
2022-12-16T07:51:23.798Z,21.42
2022-12-16T07:55:24.806Z,18.00
2022-12-16T07:59:25.118Z,20.02
2022-12-16T08:03:25.633Z,21.02
2022-12-16T08:07:26.053Z,19.10
2022-12-16T08:11:26.712Z,19.30
2022-12-16T08:15:27.370Z,21.63
2022-12-16T08:19:27.702Z,20.88
2022-12-16T08:23:27.944Z,19.40
2022-12-16T08:27:28.386Z,14.57
2022-12-16T08:31:28.976Z,14.93
2022-12-16T08:35:29.246Z,23.80
2022-12-16T08:39:29.868Z,24.35
2022-12-16T08:43:30.562Z,19.40
2022-12-16T08:47:31.405Z,20.10
2022-12-16T08:51:31.894Z,18.42
2022-12-16T08:55:32.475Z,19.50
2022-12-16T08:59:32.914Z,18.23
2022-12-16T09:03:33.833Z,18.65
2022-12-16T09:07:34.370Z,18.42
2022-12-16T09:11:34.869Z,17.65
2022-12-16T09:15:35.429Z,22.75
2022-12-16T09:19:35.902Z,21.75
2022-12-16T09:23:36.483Z,26.08
2022-12-16T09:27:37.331Z,25.70
2022-12-16T09:31:37.803Z,26.13
2022-12-16T09:35:37.964Z,26.95
2022-12-16T09:39:38.388Z,20.70
2022-12-16T09:44:04.716Z,25.23
2022-12-16T09:48:19.645Z,27.60
2022-12-16T09:52:21.797Z,20.85
2022-12-16T09:56:29.337Z,20.98
2022-12-16T10:00:48.573Z,23.15
2022-12-16T10:04:49.204Z,28.00
2022-12-16T10:09:18.127Z,25.83
2022-12-16T10:13:28.137Z,24.65
2022-12-16T10:17:43.372Z,26.60
2022-12-16T10:21:50.560Z,33.28
2022-12-16T10:26:19.140Z,24.60
2022-12-16T10:30:21.610Z,27.98
2022-12-16T10:34:28.138Z,24.10
2022-12-16T10:38:52.430Z,28.13
2022-12-16T10:43:01.812Z,23.50
2022-12-16T10:47:02.379Z,25.15
2022-12-16T10:51:03.018Z,25.73
2022-12-16T10:55:13.590Z,23.98
2022-12-16T10:59:17.252Z,26.08
2022-12-16T11:03:37.560Z,24.63
2022-12-16T11:07:56.732Z,24.48
2022-12-16T11:11:57.238Z,23.30
2022-12-16T11:15:57.892Z,28.25
2022-12-16T11:19:58.114Z,28.77
2022-12-16T11:23:58.454Z,29.48
2022-12-16T11:27:58.909Z,38.47
2022-12-16T11:32:01.237Z,33.92
2022-12-16T11:36:28.242Z,27.80
2022-12-16T11:40:33.696Z,26.13
2022-12-16T11:44:53.857Z,35.20
2022-12-16T11:49:13.825Z,31.60
2022-12-16T11:53:17.868Z,32.92
2022-12-16T11:57:20.880Z,32.25
2022-12-16T12:01:47.830Z,39.58
2022-12-16T12:06:24.001Z,31.85
2022-12-16T12:10:44.963Z,38.13
2022-12-16T12:14:53.554Z,32.13
2022-12-16T12:19:07.010Z,31.27
2022-12-16T12:23:07.580Z,32.28
2022-12-16T12:27:33.415Z,36.85
2022-12-16T12:31:54.462Z,42.53
2022-12-16T12:36:17.646Z,37.53
2022-12-16T12:40:40.701Z,35.55
2022-12-16T12:44:59.026Z,34.90
2022-12-16T12:49:09.513Z,37.38
2022-12-16T12:53:19.389Z,35.00
2022-12-16T12:57:21.827Z,36.08
2022-12-16T13:01:24.699Z,41.63
2022-12-16T13:05:40.619Z,38.05
2022-12-16T13:09:46.869Z,43.25
2022-12-16T13:13:49.873Z,44.42
2022-12-16T13:18:22.288Z,41.25
2022-12-16T13:22:24.475Z,44.28
2022-12-16T13:26:24.927Z,42.03
2022-12-16T13:30:30.866Z,38.42
2022-12-16T13:34:33.966Z,39.20
2022-12-16T13:38:36.921Z,36.08
2022-12-16T13:42:53.677Z,37.83
2022-12-16T13:46:59.787Z,37.10
2022-12-16T13:51:01.641Z,33.13
2022-12-16T13:55:18.811Z,30.83
2022-12-16T13:59:29.675Z,33.15
2022-12-16T14:03:38.219Z,33.72
2022-12-16T14:07:41.878Z,36.35
2022-12-16T14:12:12.082Z,33.63
2022-12-16T14:16:51.328Z,35.53
2022-12-16T14:21:00.548Z,34.38
2022-12-16T14:25:01.626Z,37.00
2022-12-16T14:29:05.736Z,31.70
2022-12-16T14:33:06.333Z,30.05
2022-12-16T14:37:07.286Z,35.28
2022-12-16T14:41:10.371Z,32.55
2022-12-16T14:45:11.331Z,29.98
2022-12-16T14:49:13.338Z,38.40
2022-12-16T14:53:36.052Z,36.75
2022-12-16T14:57:44.230Z,39.78
2022-12-16T15:01:45.620Z,42.85
2022-12-16T15:05:51.458Z,48.72
2022-12-16T15:09:56.538Z,44.65
2022-12-16T15:14:03.394Z,40.55
2022-12-16T15:18:12.770Z,37.15
2022-12-16T15:22:13.137Z,43.60
2022-12-16T15:26:16.355Z,36.67
2022-12-16T15:30:16.939Z,38.13
2022-12-16T15:34:41.716Z,44.75
2022-12-16T15:38:49.300Z,37.25
2022-12-16T15:42:51.989Z,39.65
2022-12-16T15:46:53.077Z,50.40
2022-12-16T15:51:11.723Z,42.50
2022-12-16T15:55:13.453Z,41.45
2022-12-16T15:59:45.827Z,43.53
2022-12-16T16:03:50.420Z,40.95
2022-12-16T16:07:50.870Z,39.10
2022-12-16T16:11:51.330Z,39.42
2022-12-16T16:15:51.834Z,49.33
2022-12-16T16:19:52.283Z,34.63
2022-12-16T16:23:52.974Z,46.88
2022-12-16T16:27:53.515Z,48.50
2022-12-16T16:31:56.228Z,41.03
2022-12-16T16:35:59.885Z,40.20
2022-12-16T16:40:01.861Z,39.65
2022-12-16T16:44:02.985Z,38.25
2022-12-16T16:48:03.666Z,39.58
2022-12-16T16:52:04.001Z,37.70
2022-12-16T16:56:04.575Z,37.70
2022-12-16T17:00:05.486Z,37.35
2022-12-16T17:04:06.114Z,41.45
2022-12-16T17:08:06.431Z,30.92
2022-12-16T17:12:06.854Z,32.35
2022-12-16T17:16:07.441Z,38.47
2022-12-16T17:20:07.734Z,33.92
2022-12-16T17:24:08.403Z,33.72
2022-12-16T17:28:08.918Z,41.20
2022-12-16T17:32:09.386Z,39.13
2022-12-16T17:36:11.076Z,52.92
2022-12-16T17:40:11.441Z,53.38
2022-12-16T17:44:12.506Z,65.30
2022-12-16T17:48:12.930Z,58.88
2022-12-16T17:52:13.905Z,54.63
2022-12-16T17:56:25.068Z,54.88
2022-12-16T18:00:26.285Z,44.97
2022-12-16T18:04:27.151Z,49.45
2022-12-16T18:08:27.521Z,33.08
2022-12-16T18:12:27.865Z,47.45
2022-12-16T18:16:28.384Z,33.78
2022-12-16T18:20:28.797Z,36.35
2022-12-16T18:24:29.260Z,36.58
2022-12-16T18:28:29.832Z,40.80
2022-12-16T18:32:34.871Z,37.83
2022-12-16T18:36:35.792Z,40.20
2022-12-16T18:40:36.313Z,38.17
2022-12-16T18:44:36.857Z,33.88
2022-12-16T18:48:37.463Z,36.50
2022-12-16T18:52:38.489Z,31.52
2022-12-16T18:56:39.048Z,38.50
2022-12-16T19:00:39.513Z,34.97
2022-12-16T19:04:39.807Z,34.38
2022-12-16T19:08:40.269Z,30.35
2022-12-16T19:12:40.858Z,35.75
2022-12-16T19:16:41.387Z,35.03
2022-12-16T19:20:42.044Z,33.17
2022-12-16T19:24:43.135Z,31.05
2022-12-16T19:28:43.849Z,36.10
2022-12-16T19:32:44.354Z,30.08
2022-12-16T19:36:46.896Z,25.95
2022-12-16T19:40:47.559Z,28.73
2022-12-16T19:44:48.191Z,29.25
2022-12-16T19:48:48.874Z,29.48
2022-12-16T19:52:49.315Z,31.35
2022-12-16T19:56:49.966Z,29.23
2022-12-16T20:00:50.580Z,32.25
2022-12-16T20:04:52.100Z,34.80
2022-12-16T20:08:52.460Z,38.63
2022-12-16T20:17:15.638Z,32.42
2022-12-16T20:21:20.838Z,32.45
2022-12-16T20:25:21.296Z,34.58
2022-12-16T20:29:21.933Z,42.15
2022-12-16T20:33:22.417Z,37.88
2022-12-16T20:37:23.259Z,39.65
2022-12-16T20:41:24.304Z,39.92
2022-12-16T20:45:25.290Z,43.08
2022-12-16T20:49:25.934Z,38.47
2022-12-16T20:53:26.384Z,30.58
2022-12-16T20:57:26.926Z,36.42
2022-12-16T21:01:27.751Z,34.15
2022-12-16T21:05:27.961Z,35.47
2022-12-16T21:09:28.797Z,36.40
2022-12-16T21:13:32.384Z,31.85
2022-12-16T21:17:32.844Z,29.27
2022-12-16T21:21:33.314Z,31.00
2022-12-16T21:25:34.151Z,26.48
2022-12-16T21:29:34.768Z,23.60
2022-12-16T21:33:36.722Z,24.42
2022-12-16T21:37:36.885Z,25.60
2022-12-16T21:41:37.394Z,27.52
2022-12-16T21:45:40.901Z,31.50
2022-12-16T21:49:41.329Z,26.30
2022-12-16T21:53:42.105Z,35.00
2022-12-16T21:57:42.988Z,30.08
2022-12-16T22:01:43.448Z,29.10
2022-12-16T22:05:43.914Z,25.27
2022-12-16T22:09:44.525Z,25.58
2022-12-16T22:13:44.988Z,25.92
2022-12-16T22:17:45.544Z,29.67
2022-12-16T22:21:46.317Z,38.05
2022-12-16T22:25:46.773Z,34.08
2022-12-16T22:29:47.323Z,31.98
2022-12-16T22:33:48.074Z,28.50
2022-12-16T22:37:49.302Z,30.15
2022-12-16T22:41:49.703Z,30.15
2022-12-16T22:45:50.154Z,37.45
2022-12-16T22:49:50.388Z,36.83
2022-12-16T22:53:50.928Z,37.63
2022-12-16T22:57:53.371Z,43.17
2022-12-16T23:01:54.165Z,28.17
2022-12-16T23:05:57.397Z,31.63
2022-12-16T23:09:57.991Z,33.13
2022-12-16T23:13:58.568Z,31.42
2022-12-16T23:17:58.992Z,37.30
2022-12-16T23:21:59.566Z,31.70
2022-12-16T23:26:00.437Z,36.40
2022-12-16T23:30:00.915Z,36.28
2022-12-16T23:32:29.871Z,33.50
2022-12-16T23:34:01.620Z,35.08
2022-12-16T23:38:02.093Z,30.35
2022-12-16T23:42:02.638Z,33.00
2022-12-16T23:46:02.992Z,31.08
2022-12-16T23:50:03.272Z,27.55
2022-12-16T23:54:08.170Z,34.55
2022-12-16T23:58:18.985Z,32.30
